Time;durP1;ratioP1;P1;durP2;ratioP2;P2;SDS_P1;SDS_P2;PMS_P1;PMS_P2;Temp;Humidity;BMP_temperature;BMP_pressure;BME280_temperature;BME280_humidity;BME280_pressure;Samples;Min_cycle;Max_cycle;Signal;HPM_P1;HPM_P2
2023/06/06 00:00:28;;;;;;;5.38;2.72;;;18.30;57.20;;;20.14;44.45;97637.59;5064656;28;20045;-59
2023/06/06 00:02:56;;;;;;;4.03;3.13;;;18.30;57.30;;;20.11;44.82;97637.22;5061722;28;20033;-57
2023/06/06 00:05:27;;;;;;;4.15;2.85;;;18.20;57.40;;;20.06;44.83;97637.88;5060257;28;20264;-57
2023/06/06 00:07:54;;;;;;;5.13;3.20;;;18.20;57.60;;;20.05;44.85;97637.03;5063330;28;20504;-56
2023/06/06 00:10:22;;;;;;;4.45;2.70;;;18.20;57.80;;;20.03;45.07;97635.63;5063308;28;20051;-57
2023/06/06 00:12:52;;;;;;;5.30;2.50;;;18.10;58.00;;;20.01;45.24;97637.72;5062728;28;20052;-57
2023/06/06 00:15:20;;;;;;;3.95;2.85;;;18.10;58.50;;;19.99;45.53;97637.94;5057698;28;20048;-57
2023/06/06 00:17:53;;;;;;;3.95;3.33;;;18.10;58.50;;;19.97;45.27;97637.34;5061933;28;20416;-58
2023/06/06 00:20:21;;;;;;;3.45;3.15;;;18.10;58.60;;;19.96;45.48;97634.84;5064198;28;20041;-57
2023/06/06 00:22:53;;;;;;;4.07;2.97;;;18.10;58.60;;;19.94;45.57;97636.94;5062818;28;20045;-57
2023/06/06 00:25:20;;;;;;;4.70;3.13;;;18.10;58.60;;;19.91;45.89;97627.44;5060260;28;20045;-57
2023/06/06 00:27:48;;;;;;;4.88;3.63;;;18.10;58.80;;;19.90;45.83;97630.34;5061764;28;20045;-58
2023/06/06 00:30:15;;;;;;;3.55;3.25;;;18.10;59.00;;;19.88;46.17;97638.66;5062671;28;20048;-56
2023/06/06 00:32:45;;;;;;;4.00;3.00;;;18.00;59.40;;;19.84;46.29;97645.56;5061263;28;20647;-57
2023/06/06 00:35:13;;;;;;;3.63;3.17;;;18.00;59.40;;;19.83;46.10;97636.63;5058625;28;20412;-57
2023/06/06 00:37:40;;;;;;;3.17;2.65;;;18.00;59.60;;;19.82;46.16;97639.53;5060451;28;20420;-56
2023/06/06 00:40:09;;;;;;;4.15;2.55;;;18.00;59.40;;;19.81;46.07;97648.69;5062278;28;20047;-58
2023/06/06 00:42:37;;;;;;;5.13;3.17;;;18.00;59.50;;;19.78;46.27;97644.56;5061917;28;20044;-57
2023/06/06 00:45:06;;;;;;;5.28;3.17;;;17.90;59.80;;;19.74;46.40;97640.66;5058229;28;20040;-54
2023/06/06 00:47:35;;;;;;;3.13;2.83;;;17.90;60.20;;;19.70;46.25;97633.16;5055071;28;20163;-57
2023/06/06 00:50:03;;;;;;;3.40;3.05;;;17.80;60.10;;;19.64;46.57;97638.41;5062320;28;20045;-58
2023/06/06 00:52:31;;;;;;;4.45;3.45;;;17.70;60.50;;;19.59;46.52;97640.09;5062639;28;20052;-57
2023/06/06 00:54:59;;;;;;;3.88;3.30;;;17.70;60.40;;;19.54;46.87;97634.53;5061846;28;20047;-57
2023/06/06 00:57:27;;;;;;;4.20;3.10;;;17.70;60.70;;;19.50;47.08;97634.13;5061917;28;20041;-57
2023/06/06 00:59:56;;;;;;;3.60;3.05;;;17.60;61.20;;;19.48;47.12;97630.81;5061645;28;20132;-57
2023/06/06 01:02:24;;;;;;;4.25;3.20;;;17.60;61.10;;;19.45;47.18;97629.41;5038578;28;20493;-56
2023/06/06 01:04:53;;;;;;;4.93;3.20;;;17.60;61.20;;;19.44;47.22;97633.16;5058182;28;20049;-54
2023/06/06 01:07:20;;;;;;;4.43;3.45;;;17.60;61.20;;;19.46;47.39;97638.31;5061497;28;20056;-57
2023/06/06 01:09:48;;;;;;;4.45;3.05;;;17.70;61.50;;;19.45;47.45;97634.78;5062556;28;20060;-55
2023/06/06 01:12:35;;;;;;;4.30;3.90;;;17.60;61.60;;;19.39;47.39;97624.88;5057847;28;20044;-56
2023/06/06 01:15:17;;;;;;;4.70;3.33;;;17.60;63.00;;;19.39;47.51;97624.06;5061817;28;20100;-58
2023/06/06 01:17:47;;;;;;;7.57;3.88;;;17.60;63.50;;;19.39;47.51;97626.75;5045180;28;20496;-57
2023/06/06 01:20:16;;;;;;;5.25;3.20;;;17.50;62.20;;;19.38;47.47;97628.59;5058485;28;20045;-58
2023/06/06 01:22:47;;;;;;;3.95;3.47;;;17.60;62.30;;;19.37;47.67;97624.28;5058006;28;20493;-57
2023/06/06 01:25:19;;;;;;;4.65;3.75;;;17.60;62.30;;;19.36;47.60;97629.88;5033864;28;20508;-56
2023/06/06 01:27:47;;;;;;;5.07;3.57;;;17.50;62.10;;;19.33;47.75;97619.50;5060371;28;20068;-57
2023/06/06 01:30:17;;;;;;;4.55;3.45;;;17.50;62.50;;;19.30;47.98;97619.97;5061502;28;20295;-57
2023/06/06 01:33:03;;;;;;;5.22;3.38;;;17.50;62.70;;;19.27;48.05;97622.06;5061773;28;20052;-57
2023/06/06 01:35:49;;;;;;;5.18;3.20;;;17.50;63.60;;;19.26;48.05;97623.06;5033350;28;20062;-57
2023/06/06 01:38:30;;;;;;;4.35;3.25;;;17.50;62.70;;;19.24;48.18;97619.78;5052076;28;20037;-57
2023/06/06 01:41:03;;;;;;;3.90;3.00;;;17.40;63.50;;;19.23;48.28;97622.69;5042704;28;20454;-56
2023/06/06 01:43:32;;;;;;;4.28;3.20;;;17.40;63.20;;;19.21;48.32;97622.06;5044943;28;20047;-56
2023/06/06 01:46:01;;;;;;;4.32;3.05;;;17.40;63.40;;;19.21;48.49;97622.06;5042620;28;20060;-56
2023/06/06 01:48:30;;;;;;;4.18;3.47;;;17.40;63.30;;;19.17;48.66;97618.97;5058086;28;20041;-55
2023/06/06 01:50:58;;;;;;;4.45;3.40;;;17.40;63.50;;;19.16;48.69;97625.44;5060719;28;20045;-57
2023/06/06 01:53:25;;;;;;;4.40;3.55;;;17.40;63.60;;;19.16;48.53;97620.03;5062344;28;20051;-57
2023/06/06 01:55:55;;;;;;;5.15;3.72;;;17.50;63.00;;;19.11;48.74;97625.25;5059438;28;20059;-57
2023/06/06 01:58:23;;;;;;;4.63;3.75;;;17.50;62.90;;;19.10;48.84;97625.47;5057923;28;20049;-56
2023/06/06 02:00:50;;;;;;;7.78;4.38;;;17.40;63.20;;;19.07;49.08;97630.25;5065654;28;20051;-55
2023/06/06 02:03:18;;;;;;;4.60;4.13;;;17.30;64.10;;;19.06;48.97;97622.38;5059137;28;20041;-56
2023/06/06 02:05:46;;;;;;;4.97;3.58;;;17.30;64.30;;;19.04;49.13;97627.19;5057008;28;20127;-56
2023/06/06 02:08:13;;;;;;;4.82;4.10;;;17.30;64.50;;;19.02;49.18;97623.88;5062466;28;20044;-56
2023/06/06 02:10:41;;;;;;;4.85;3.90;;;17.20;65.00;;;18.99;49.16;97627.81;5061022;28;20063;-56
2023/06/06 02:13:09;;;;;;;4.60;3.60;;;17.20;65.00;;;18.98;49.16;97630.72;5058400;28;20901;-57
2023/06/06 02:15:36;;;;;;;4.88;3.80;;;17.10;64.90;;;18.97;49.13;97635.28;5056161;28;20049;-58
2023/06/06 02:18:05;;;;;;;5.45;3.80;;;17.20;64.60;;;18.95;49.03;97634.66;5062252;28;20045;-57
2023/06/06 02:20:32;;;;;;;4.95;3.67;;;17.20;65.50;;;18.93;49.01;97633.25;5066603;28;20047;-56
2023/06/06 02:23:01;;;;;;;4.80;3.63;;;17.00;65.00;;;18.89;49.07;97639.06;5063653;28;20144;-56
2023/06/06 02:25:28;;;;;;;5.50;4.47;;;17.00;65.10;;;18.87;49.17;97641.13;5061333;28;20045;-56
2023/06/06 02:27:56;;;;;;;4.40;3.85;;;17.00;64.90;;;18.85;49.26;97643.22;5063685;28;20049;-56
2023/06/06 02:30:24;;;;;;;5.57;3.83;;;17.00;65.50;;;18.80;49.43;97643.03;5064483;28;20059;-55
2023/06/06 02:32:51;;;;;;;6.70;4.80;;;16.90;65.80;;;18.78;49.33;97639.69;5066145;28;20059;-57
2023/06/06 02:35:19;;;;;;;8.55;5.05;;;16.90;65.30;;;18.74;49.45;97637.66;5060874;28;20052;-57
2023/06/06 02:37:47;;;;;;;5.78;3.97;;;16.90;65.60;;;18.71;49.54;97647.00;5061198;28;20049;-57
2023/06/06 02:40:16;;;;;;;7.43;4.72;;;16.80;65.60;;;18.68;49.33;97650.09;5064470;28;20059;-57
2023/06/06 02:42:44;;;;;;;7.05;4.00;;;16.80;65.50;;;18.65;49.59;97655.91;5048250;28;20048;-57
2023/06/06 02:45:12;;;;;;;14.68;4.80;;;16.80;65.70;;;18.62;49.58;97662.56;5061360;28;20045;-57
2023/06/06 02:47:39;;;;;;;5.95;3.92;;;16.70;65.80;;;18.58;49.72;97655.13;5062262;28;20424;-57
2023/06/06 02:50:10;;;;;;;5.43;4.00;;;16.70;65.80;;;18.55;49.78;97653.66;5062968;28;20052;-57
2023/06/06 02:52:38;;;;;;;4.72;4.18;;;16.70;66.30;;;18.51;49.77;97655.13;5064550;28;20416;-57
2023/06/06 02:55:07;;;;;;;5.72;4.25;;;16.70;66.40;;;18.47;49.71;97654.72;5062014;28;20445;-57
2023/06/06 02:57:35;;;;;;;5.53;4.03;;;16.60;66.20;;;18.42;49.88;97657.25;5060810;28;20048;-57
2023/06/06 03:00:07;;;;;;;4.93;3.80;;;16.50;66.30;;;18.38;50.05;97658.72;5060024;28;20056;-57
2023/06/06 03:02:36;;;;;;;4.63;3.83;;;16.50;66.60;;;18.36;49.91;97658.09;5066141;28;20044;-55
2023/06/06 03:05:04;;;;;;;6.85;4.30;;;16.50;66.60;;;18.33;49.92;97654.97;5061987;28;20048;-52
2023/06/06 03:07:32;;;;;;;6.72;4.70;;;16.40;66.60;;;18.30;50.10;97658.94;5060867;28;20049;-56
2023/06/06 03:09:59;;;;;;;5.32;4.20;;;16.40;66.70;;;18.24;49.92;97662.44;5063143;28;20053;-57
2023/06/06 03:12:34;;;;;;;5.20;4.05;;;16.30;67.00;;;18.20;50.20;97664.72;5064259;28;20060;-57
2023/06/06 03:15:02;;;;;;;4.45;3.80;;;16.30;67.40;;;18.15;50.28;97661.84;5046191;28;20449;-56
2023/06/06 03:17:35;;;;;;;6.05;4.60;;;16.20;67.50;;;18.12;50.25;97661.44;5039074;28;20053;-57
2023/06/06 03:20:06;;;;;;;4.80;4.05;;;16.20;67.40;;;18.07;50.21;97665.59;5060684;28;20045;-57
2023/06/06 03:22:36;;;;;;;5.63;4.93;;;16.10;67.50;;;18.03;50.33;97660.81;5064011;28;20271;-57
2023/06/06 03:25:04;;;;;;;7.47;4.45;;;16.20;67.80;;;18.00;50.48;97669.31;5062258;28;20060;-57
2023/06/06 03:27:32;;;;;;;5.38;4.65;;;16.10;68.20;;;17.97;50.54;97673.28;5059771;28;20420;-57
2023/06/06 03:30:02;;;;;;;4.43;4.03;;;16.10;68.30;;;17.94;50.79;97670.16;5062029;28;20075;-56
2023/06/06 03:32:31;;;;;;;5.57;4.65;;;16.00;68.60;;;17.92;50.85;97672.22;5063653;28;20056;-55
2023/06/06 03:35:00;;;;;;;5.50;4.40;;;16.00;68.60;;;17.90;50.90;97667.88;5062808;28;20063;-56
2023/06/06 03:37:28;;;;;;;5.65;4.43;;;16.00;68.80;;;17.90;50.94;97680.50;5061360;28;20037;-59
2023/06/06 03:39:56;;;;;;;5.68;4.90;;;16.00;69.00;;;17.85;51.21;97678.41;5061288;28;20056;-55
2023/06/06 03:42:24;;;;;;;6.40;5.28;;;15.90;69.40;;;17.82;51.39;97678.00;5053699;28;20045;-56
2023/06/06 03:44:51;;;;;;;6.78;5.00;;;16.00;69.90;;;17.81;51.27;97689.78;5060023;28;20068;-56
2023/06/06 03:47:19;;;;;;;6.32;4.90;;;15.90;69.80;;;17.78;51.50;97691.03;5061829;28;20045;-56
2023/06/06 03:49:46;;;;;;;7.30;5.68;;;15.90;70.20;;;17.76;51.75;97690.41;5063605;28;20507;-56
2023/06/06 03:52:14;;;;;;;8.27;5.30;;;15.90;70.00;;;17.76;51.76;97687.72;5061055;28;20056;-56
2023/06/06 03:54:42;;;;;;;5.47;4.85;;;16.00;70.10;;;17.77;51.89;97685.84;5059979;28;20057;-57
2023/06/06 03:57:10;;;;;;;6.63;5.30;;;16.00;70.50;;;17.76;52.26;97685.03;5062368;28;20047;-56
2023/06/06 03:59:39;;;;;;;7.38;5.78;;;16.00;71.00;;;17.78;51.94;97677.56;5063100;28;20500;-56
2023/06/06 04:02:06;;;;;;;8.30;5.72;;;16.00;70.70;;;17.79;52.04;97675.72;5063636;28;20492;-56
2023/06/06 04:04:36;;;;;;;5.60;4.47;;;16.00;70.70;;;17.79;52.16;97679.22;5061356;28;20036;-56
2023/06/06 04:07:05;;;;;;;6.28;5.28;;;16.10;70.80;;;17.80;52.46;97688.97;5059962;28;20420;-57
2023/06/06 04:09:33;;;;;;;6.43;4.88;;;16.00;71.20;;;17.82;52.44;97683.38;5063252;28;20123;-56
2023/06/06 04:12:04;;;;;;;7.20;4.43;;;16.10;71.20;;;17.84;52.28;97679.47;5064427;28;20064;-56
2023/06/06 04:14:31;;;;;;;5.40;4.50;;;16.10;71.20;;;17.88;52.31;97685.28;5059393;28;20049;-56
2023/06/06 04:16:59;;;;;;;4.55;4.10;;;16.10;70.70;;;17.90;52.36;97686.72;5060547;28;20041;-58
2023/06/06 04:19:26;;;;;;;7.03;5.03;;;16.20;70.60;;;17.94;52.32;97692.53;5059197;28;20052;-57
2023/06/06 04:21:55;;;;;;;9.85;5.47;;;16.20;70.60;;;17.95;52.24;97693.34;5055263;28;20454;-57
2023/06/06 04:24:22;;;;;;;6.43;4.30;;;16.20;70.60;;;17.96;52.39;97695.84;5061845;28;20514;-58
2023/06/06 04:26:50;;;;;;;6.82;5.43;;;16.20;70.80;;;17.99;52.47;97694.59;5063874;28;20048;-57
2023/06/06 04:29:18;;;;;;;5.03;4.53;;;16.20;70.70;;;18.01;52.23;97692.50;5060343;28;20052;-57
2023/06/06 04:31:46;;;;;;;5.07;4.47;;;16.30;70.70;;;18.02;52.20;97696.88;5059166;28;20044;-58
2023/06/06 04:34:17;;;;;;;5.80;4.38;;;16.30;70.60;;;18.02;52.32;97692.31;5060618;28;20049;-57
2023/06/06 04:36:46;;;;;;;5.05;4.55;;;16.30;70.70;;;18.04;52.47;97701.00;5062224;28;20099;-58
2023/06/06 04:39:16;;;;;;;5.05;4.43;;;16.30;70.80;;;18.05;52.41;97700.00;5059996;28;20053;-58
2023/06/06 04:41:45;;;;;;;5.40;3.90;;;16.30;70.80;;;18.09;52.57;97705.78;5059234;28;20068;-56
2023/06/06 04:44:17;;;;;;;5.43;4.13;;;16.30;70.80;;;18.10;52.62;97710.94;5060450;28;20053;-55
2023/06/06 04:46:45;;;;;;;5.65;4.90;;;16.40;70.80;;;18.13;52.40;97709.72;5061705;28;20420;-57
2023/06/06 04:49:13;;;;;;;7.43;5.45;;;16.40;70.80;;;18.16;52.46;97714.69;5062534;28;20076;-56
2023/06/06 04:51:43;;;;;;;8.88;5.70;;;16.40;70.60;;;18.18;52.28;97704.53;5059000;28;20128;-58
2023/06/06 04:54:10;;;;;;;6.38;4.97;;;16.50;70.50;;;18.21;52.45;97708.69;5061144;28;20416;-57
2023/06/06 04:56:40;;;;;;;5.30;4.80;;;16.60;70.40;;;18.24;52.49;97705.56;5063151;28;20416;-55
2023/06/06 04:59:08;;;;;;;5.38;4.88;;;16.60;70.50;;;18.25;52.27;97710.75;5063336;28;20408;-56
2023/06/06 05:01:36;;;;;;;6.10;4.43;;;16.60;69.90;;;18.28;52.54;97720.25;5060263;28;20041;-55
2023/06/06 05:04:06;;;;;;;5.65;4.90;;;16.60;70.40;;;18.29;52.41;97714.66;5059824;28;20041;-54
2023/06/06 05:06:34;;;;;;;6.97;5.22;;;16.60;70.10;;;18.32;52.50;97707.22;5063098;28;20514;-57
2023/06/06 05:09:04;;;;;;;6.18;5.05;;;16.60;70.20;;;18.31;52.62;97714.47;5063261;28;20045;-57
2023/06/06 05:11:33;;;;;;;6.93;5.32;;;16.70;70.30;;;18.32;52.71;97712.59;5051571;28;20037;-56
2023/06/06 05:14:01;;;;;;;7.35;4.97;;;16.70;70.70;;;18.36;52.69;97711.13;5059750;28;20048;-57
2023/06/06 05:16:29;;;;;;;7.43;4.95;;;16.70;70.70;;;18.37;52.67;97716.31;5062317;28;20032;-53
2023/06/06 05:18:57;;;;;;;8.20;5.40;;;16.70;70.70;;;18.41;52.45;97716.75;5061601;28;20044;-55
2023/06/06 05:21:25;;;;;;;6.28;5.13;;;16.80;70.20;;;18.43;52.47;97720.06;5059546;28;20052;-54
2023/06/06 05:23:54;;;;;;;6.47;5.13;;;16.80;70.10;;;18.47;52.34;97723.97;5059705;28;20064;-54
2023/06/06 05:26:22;;;;;;;7.32;5.50;;;16.80;69.90;;;18.47;52.52;97724.81;5059751;28;20049;-55
2023/06/06 05:28:49;;;;;;;5.25;4.80;;;16.80;69.70;;;18.49;52.28;97730.00;5062895;28;20044;-55
2023/06/06 05:31:20;;;;;;;7.53;4.90;;;16.90;69.50;;;18.47;52.32;97727.50;5061189;28;20056;-55
2023/06/06 05:33:48;;;;;;;6.38;4.47;;;16.90;68.90;;;18.53;52.35;97730.41;5059454;28;20066;-55
2023/06/06 05:36:16;;;;;;;7.35;5.18;;;17.00;68.80;;;18.60;52.09;97731.22;5059792;28;20064;-53
2023/06/06 05:38:44;;;;;;;7.22;4.93;;;17.00;68.50;;;18.65;52.13;97739.50;5062604;28;20416;-51
2023/06/06 05:41:13;;;;;;;6.00;4.57;;;17.10;68.40;;;18.71;51.79;97730.59;5054422;28;20188;-54
2023/06/06 05:43:45;;;;;;;6.47;4.63;;;17.10;68.00;;;18.78;51.47;97738.66;5062776;28;20040;-55
2023/06/06 05:46:14;;;;;;;6.50;4.93;;;17.20;67.60;;;18.77;51.10;97740.53;5058097;28;20048;-54
2023/06/06 05:48:42;;;;;;;7.70;5.03;;;17.20;67.00;;;18.75;51.37;97742.59;5044964;28;20052;-50
2023/06/06 05:51:10;;;;;;;7.20;4.68;;;17.30;66.80;;;18.79;51.29;97740.31;5062277;28;20048;-54
2023/06/06 05:53:44;;;;;;;5.70;4.38;;;17.30;66.40;;;18.84;51.18;97743.22;5058215;28;20045;-51
2023/06/06 05:56:14;;;;;;;5.55;4.10;;;17.40;66.40;;;18.88;50.92;97739.91;5059025;28;20045;-55
2023/06/06 05:58:46;;;;;;;5.20;4.13;;;17.30;65.90;;;18.87;50.70;97743.63;5062431;28;20059;-54
2023/06/06 06:01:14;;;;;;;4.80;3.70;;;17.40;65.40;;;18.91;50.26;97737.81;5061890;28;20503;-55
2023/06/06 06:03:43;;;;;;;6.75;4.63;;;17.50;65.00;;;18.97;50.30;97745.88;5057402;28;20045;-55
2023/06/06 06:06:11;;;;;;;5.65;4.43;;;17.40;64.50;;;18.98;50.25;97744.00;5053433;28;20493;-55
2023/06/06 06:08:38;;;;;;;5.43;4.50;;;17.50;64.30;;;18.98;50.36;97739.47;5049837;28;20412;-52
2023/06/06 06:11:07;;;;;;;5.13;4.35;;;17.50;64.50;;;19.04;50.19;97737.78;5058910;28;20041;-55
2023/06/06 06:13:36;;;;;;;5.55;4.80;;;17.50;64.30;;;19.07;50.13;97745.44;5062007;28;20048;-51
2023/06/06 06:16:04;;;;;;;5.80;4.63;;;17.60;63.80;;;19.11;50.04;97746.66;5058891;28;20064;-52
2023/06/06 06:18:33;;;;;;;4.88;4.28;;;17.70;63.90;;;19.17;49.99;97750.38;5056725;28;20052;-52
2023/06/06 06:21:01;;;;;;;7.43;4.30;;;17.70;63.40;;;19.15;49.62;97755.16;5058759;28;20048;-54
2023/06/06 06:23:28;;;;;;;5.15;3.97;;;17.80;62.50;;;19.16;49.40;97757.66;5059871;28;20048;-53
2023/06/06 06:25:56;;;;;;;6.93;4.22;;;17.80;62.20;;;19.23;49.32;97754.91;5061941;28;20480;-51
2023/06/06 06:28:25;;;;;;;4.75;4.03;;;17.90;62.20;;;19.30;49.14;97752.22;5060573;28;20063;-51
2023/06/06 06:30:52;;;;;;;4.28;3.88;;;17.90;61.80;;;19.34;49.10;97753.44;5061062;28;20053;-50
2023/06/06 06:33:22;;;;;;;4.78;3.92;;;17.90;61.60;;;19.40;48.58;97757.97;5060698;28;20049;-57
2023/06/06 06:35:50;;;;;;;6.05;4.13;;;18.00;61.10;;;19.43;48.53;97760.25;5060637;28;20044;-56
2023/06/06 06:38:17;;;;;;;5.38;4.10;;;18.10;60.80;;;19.46;48.47;97757.94;5061520;28;20475;-55
2023/06/06 06:40:45;;;;;;;5.07;4.00;;;18.10;60.70;;;19.54;48.51;97758.72;5058700;28;20390;-56
2023/06/06 06:43:13;;;;;;;8.13;4.07;;;18.10;60.50;;;19.58;48.19;97763.50;5058633;28;20064;-55
2023/06/06 06:46:01;;;;;;;5.20;4.10;;;18.20;60.20;;;19.60;47.90;97766.81;5052216;28;20060;-57
2023/06/06 06:48:29;;;;;;;8.23;4.15;;;18.30;59.70;;;19.64;47.81;97767.22;5060067;28;20068;-52
2023/06/06 06:50:56;;;;;;;9.23;4.95;;;18.30;59.60;;;19.70;47.74;97763.63;5061682;28;20051;-55
2023/06/06 06:53:25;;;;;;;4.93;4.13;;;18.40;59.10;;;19.77;47.35;97766.31;5061319;28;20055;-54
2023/06/06 06:55:54;;;;;;;6.35;4.00;;;18.40;58.80;;;19.82;47.11;97766.50;5052237;28;20390;-53
2023/06/06 06:58:33;;;;;;;4.82;3.97;;;18.50;58.50;;;19.88;47.13;97772.91;5058433;28;20049;-55
2023/06/06 07:01:02;;;;;;;5.82;3.72;;;18.50;58.40;;;19.91;46.69;97762.50;5058790;28;20060;-56
2023/06/06 07:03:34;;;;;;;4.68;4.05;;;18.60;58.20;;;19.93;46.62;97767.66;5061959;28;20044;-56
2023/06/06 07:06:03;;;;;;;;;;;18.70;57.70;;;19.97;47.12;97761.63;5064098;28;20045;-56
2023/06/06 07:08:31;;;;;;;5.10;4.13;;;18.70;57.00;;;20.02;46.34;97761.78;5063692;28;19921;-41
2023/06/06 07:10:58;;;;;;;5.88;4.53;;;18.70;57.30;;;20.02;46.43;97760.97;5060522;28;20288;-41
2023/06/06 07:13:26;;;;;;;4.07;3.67;;;18.80;57.20;;;20.06;46.19;97764.88;5063158;28;20036;-40
2023/06/06 07:15:53;;;;;;;6.00;4.38;;;18.80;57.00;;;20.08;46.22;97762.78;5065029;28;20051;-41
2023/06/06 07:18:21;;;;;;;7.53;4.47;;;18.80;56.40;;;20.13;45.99;97768.38;5046234;28;20055;-41
2023/06/06 07:20:49;;;;;;;6.07;4.65;;;18.90;56.30;;;20.18;45.59;97773.94;5061397;28;20049;-41
2023/06/06 07:23:16;;;;;;;6.38;3.60;;;19.00;55.90;;;20.24;45.51;97769.53;5061610;28;20049;-41
2023/06/06 07:25:44;;;;;;;4.53;3.58;;;19.00;55.70;;;20.29;45.56;97766.16;5053171;28;20500;-41
2023/06/06 07:28:13;;;;;;;4.32;3.90;;;19.10;55.60;;;20.33;45.30;97770.06;5061784;28;20052;-47
2023/06/06 07:30:41;;;;;;;4.05;3.55;;;19.10;55.20;;;20.36;44.99;97769.66;5065070;28;20052;-41
2023/06/06 07:33:09;;;;;;;5.68;4.43;;;19.20;54.90;;;20.37;45.06;97764.00;5065101;28;20119;-41
2023/06/06 07:35:36;;;;;;;6.15;4.18;;;19.20;54.90;;;20.42;44.72;97766.88;5061572;28;20037;-41
2023/06/06 07:38:04;;;;;;;5.50;3.95;;;19.20;54.90;;;20.48;44.89;97770.56;5061353;28;20052;-39
2023/06/06 07:40:34;;;;;;;4.90;3.35;;;19.30;54.70;;;20.54;44.68;97764.28;5063742;28;20045;-39
2023/06/06 07:43:02;;;;;;;5.18;3.70;;;19.30;54.30;;;20.57;44.67;97761.13;5065947;28;20529;-40
2023/06/06 07:45:29;;;;;;;3.97;3.55;;;19.40;54.20;;;20.62;44.24;97766.72;5064101;28;20036;-40
2023/06/06 07:47:58;;;;;;;5.38;4.20;;;19.40;53.90;;;20.68;44.26;97758.78;5061111;28;20043;-40
2023/06/06 07:50:26;;;;;;;6.68;4.28;;;19.50;53.50;;;20.75;44.25;97762.25;5060501;28;20207;-40
2023/06/06 07:52:53;;;;;;;4.32;3.63;;;19.50;53.60;;;20.79;43.77;97760.75;5064573;28;20059;-40
2023/06/06 07:55:22;;;;;;;5.20;3.72;;;19.60;52.90;;;20.82;43.65;97763.84;5064173;28;20036;-40
2023/06/06 07:57:50;;;;;;;4.40;3.72;;;19.60;52.60;;;20.86;42.97;97758.81;5060147;28;20041;-40
2023/06/06 08:00:18;;;;;;;5.65;3.80;;;19.70;52.40;;;20.89;43.37;97760.22;5061080;28;20419;-39
2023/06/06 08:02:45;;;;;;;5.95;3.60;;;19.70;52.40;;;20.95;42.97;97759.31;5064331;28;20036;-41
2023/06/06 08:05:13;;;;;;;5.82;3.70;;;19.80;52.40;;;21.00;43.14;97751.38;5063849;28;20045;-40
2023/06/06 08:07:44;;;;;;;6.43;3.08;;;19.80;52.30;;;21.07;43.02;97754.81;5059783;28;20048;-40
2023/06/06 08:10:12;;;;;;;4.63;3.65;;;19.90;52.20;;;21.14;42.78;97758.25;5061071;28;20056;-40
2023/06/06 08:12:40;;;;;;;5.35;3.83;;;20.00;51.90;;;21.20;42.81;97762.78;5062105;28;20037;-41
2023/06/06 08:15:09;;;;;;;6.80;3.88;;;20.00;51.60;;;21.26;42.47;97763.75;5063830;28;20464;-41
2023/06/06 08:17:38;;;;;;;3.47;2.90;;;20.10;51.10;;;21.31;42.05;97766.63;5061570;28;20060;-41
2023/06/06 08:20:08;;;;;;;6.05;3.50;;;20.20;51.00;;;21.35;41.76;97764.28;5060756;28;20064;-41
2023/06/06 08:22:37;;;;;;;5.80;3.60;;;20.20;50.00;;;21.41;41.63;97768.78;5061934;28;20489;-41
2023/06/06 08:25:07;;;;;;;5.68;3.70;;;20.20;50.20;;;21.46;41.62;97760.00;5063725;28;20052;-41
2023/06/06 08:27:36;;;;;;;6.10;4.20;;;20.30;50.20;;;21.49;41.74;97763.06;5062352;28;20041;-41
2023/06/06 08:30:04;;;;;;;6.40;4.28;;;20.30;50.00;;;21.55;41.43;97766.75;5058970;28;20049;-40
2023/06/06 08:32:33;;;;;;;7.75;4.13;;;20.40;49.80;;;21.58;40.45;97766.31;5060417;28;20412;-40
2023/06/06 08:35:03;;;;;;;5.45;3.28;;;20.40;48.90;;;21.60;40.83;97756.06;5063567;28;20415;-40
2023/06/06 08:37:30;;;;;;;4.55;3.72;;;20.50;48.80;;;21.65;41.03;97761.59;5062912;28;20496;-40
2023/06/06 08:39:58;;;;;;;7.68;4.10;;;20.40;49.00;;;21.70;40.49;97760.94;5060413;28;20067;-40
2023/06/06 08:42:29;;;;;;;7.72;3.45;;;20.50;48.40;;;21.74;40.55;97759.41;5060525;28;20049;-40
2023/06/06 08:44:59;;;;;;;5.72;3.55;;;20.60;48.80;;;21.77;40.74;97757.06;5062611;28;20150;-40
2023/06/06 08:47:29;;;;;;;4.47;3.58;;;20.60;48.50;;;21.85;40.71;97760.50;5063172;28;20040;-40
2023/06/06 08:50:00;;;;;;;4.53;3.83;;;20.70;48.70;;;21.89;40.07;97759.81;5058668;28;20045;-40
2023/06/06 08:52:29;;;;;;;5.57;3.40;;;20.70;48.50;;;21.95;40.37;97763.50;5059244;28;20045;-40
2023/06/06 08:54:57;;;;;;;5.85;3.90;;;20.80;48.50;;;21.99;39.87;97754.66;5061892;28;20045;-41
2023/06/06 08:57:26;;;;;;;6.72;4.10;;;20.90;48.10;;;22.03;40.12;97761.25;5063050;28;20134;-41
2023/06/06 08:59:54;;;;;;;4.78;3.40;;;20.90;48.10;;;22.07;39.71;97750.78;5038969;28;20038;-41
2023/06/06 09:02:22;;;;;;;5.38;3.63;;;20.90;47.20;;;22.07;39.22;97764.34;5055982;28;20041;-42
2023/06/06 09:04:52;;;;;;;4.22;3.60;;;20.90;47.00;;;22.10;39.79;97760.34;5061657;28;20041;-41
2023/06/06 09:07:20;;;;;;;4.85;4.25;;;20.90;47.60;;;22.15;39.93;97764.00;5061638;28;20037;-41
2023/06/06 09:09:49;;;;;;;4.10;3.70;;;21.00;47.80;;;22.17;39.58;97761.06;5058455;28;20144;-41
2023/06/06 09:12:16;;;;;;;7.38;4.65;;;21.00;47.50;;;22.19;39.75;97757.03;5058732;28;20052;-41
2023/06/06 09:14:45;;;;;;;4.28;3.88;;;21.00;47.40;;;22.25;39.38;97754.50;5061526;28;20302;-41
2023/06/06 09:17:16;;;;;;;4.90;4.03;;;21.10;47.40;;;22.28;39.60;97770.31;5059487;28;20040;-41
2023/06/06 09:19:49;;;;;;;5.25;4.10;;;21.20;47.20;;;22.32;39.30;97761.47;5060155;28;20048;-41
2023/06/06 09:22:18;;;;;;;5.57;3.78;;;21.10;47.20;;;22.35;39.25;97752.88;5060011;28;20041;-41
2023/06/06 09:24:45;;;;;;;6.63;4.22;;;21.20;47.20;;;22.36;39.25;97754.50;5062410;28;20045;-41
2023/06/06 09:27:32;;;;;;;5.95;4.20;;;21.20;46.80;;;22.35;39.42;97755.59;5062037;28;20468;-40
2023/06/06 09:30:00;;;;;;;6.82;4.47;;;21.20;46.20;;;22.41;39.54;97751.09;5052987;28;20156;-41
2023/06/06 09:32:29;;;;;;;5.70;4.22;;;21.20;47.20;;;22.42;38.88;97759.00;5060426;28;20041;-41
2023/06/06 09:35:03;;;;;;;6.60;3.47;;;21.10;46.90;;;22.44;39.00;97756.06;5050877;28;20151;-41
2023/06/06 09:37:31;;;;;;;;;;;21.20;46.60;;;22.49;39.42;97752.63;5060044;28;20502;-41
2023/06/06 09:40:17;;;;;;;5.53;3.75;;;21.30;45.70;;;22.47;38.36;97744.75;5058341;28;19927;-41
2023/06/06 09:42:47;;;;;;;6.32;4.05;;;21.20;44.60;;;22.52;38.71;97747.56;5051195;28;20037;-41
2023/06/06 09:45:20;;;;;;;5.57;4.25;;;21.30;46.10;;;22.55;38.36;97747.09;5028275;28;20044;-41
2023/06/06 09:47:48;;;;;;;6.22;3.70;;;21.30;45.80;;;22.58;38.64;97749.31;5049719;28;20476;-41
2023/06/06 09:50:19;;;;;;;6.55;4.18;;;21.40;46.00;;;22.60;37.82;97739.09;5059574;28;20033;-41
2023/06/06 09:52:54;;;;;;;4.90;3.80;;;21.40;44.60;;;22.57;37.37;97736.84;5042416;28;20053;-40
2023/06/06 09:55:24;;;;;;;5.72;4.13;;;21.40;43.40;;;22.62;37.40;97749.69;5045223;28;20052;-41
2023/06/06 09:58:19;;;;;;;4.78;4.00;;;21.40;43.70;;;22.65;37.91;97743.78;5060819;28;20072;-41
2023/06/06 10:00:48;;;;;;;5.20;4.57;;;21.60;44.30;;;22.78;37.88;97748.97;5034007;28;20045;-40
2023/06/06 10:03:21;;;;;;;4.43;3.88;;;21.70;45.00;;;22.87;37.81;97741.28;5058523;28;20639;-40
2023/06/06 10:05:50;;;;;;;5.43;4.38;;;21.80;44.80;;;23.01;37.58;97744.56;5043277;28;20053;-40
2023/06/06 10:08:21;;;;;;;5.28;4.25;;;22.00;44.50;;;23.09;37.45;97746.97;5063439;28;20500;-40
2023/06/06 10:10:50;;;;;;;5.55;3.65;;;22.00;44.30;;;23.17;37.75;97734.91;5061156;28;20044;-41
2023/06/06 10:13:22;;;;;;;5.63;4.15;;;22.10;44.90;;;23.26;37.71;97738.06;5059774;28;20045;-41
2023/06/06 10:15:50;;;;;;;6.85;4.25;;;22.20;44.70;;;23.33;37.49;97736.84;5061381;28;20044;-41
2023/06/06 10:18:19;;;;;;;5.97;4.05;;;22.30;44.50;;;23.42;37.40;97731.88;5063105;28;20424;-41
2023/06/06 10:20:48;;;;;;;5.63;5.13;;;22.40;44.30;;;23.50;37.56;97728.78;5060963;28;20055;-40
2023/06/06 10:23:16;;;;;;;6.25;4.43;;;22.50;44.50;;;23.57;37.60;97734.91;5057911;28;20412;-41
2023/06/06 10:25:45;;;;;;;5.10;4.07;;;22.50;44.40;;;23.65;36.91;97730.97;5060582;28;20143;-41
2023/06/06 10:28:33;;;;;;;3.90;3.47;;;22.60;43.90;;;23.74;37.14;97721.31;5045616;28;20040;-40